createdAt,value
2022-10-11T00:01:06.145Z,100422.77
2022-10-11T00:05:11.955Z,100420.59
2022-10-11T00:09:15.580Z,100418.46
2022-10-11T00:13:17.387Z,100412.01
2022-10-11T00:17:19.220Z,100411.98
2022-10-11T00:21:21.321Z,100410.88
2022-10-11T00:25:23.268Z,100408.60
2022-10-11T00:29:25.177Z,100403.77
2022-10-11T00:33:27.046Z,100409.33
2022-10-11T00:37:28.920Z,100406.00
2022-10-11T00:41:30.964Z,100403.09
2022-10-11T00:45:35.515Z,100404.84
2022-10-11T00:49:45.346Z,100404.63
2022-10-11T00:53:50.381Z,100402.11
2022-10-11T00:57:53.276Z,100398.85
2022-10-11T01:01:55.346Z,100391.98
2022-10-11T01:05:57.187Z,100388.62
2022-10-11T01:09:59.136Z,100382.55
2022-10-11T01:14:25.915Z,100381.91
2022-10-11T01:18:40.437Z,100380.82
2022-10-11T01:22:57.331Z,100382.54
2022-10-11T01:27:30.597Z,100378.33
2022-10-11T01:31:46.666Z,100375.58
2022-10-11T01:35:51.618Z,100374.65
2022-10-11T01:40:01.083Z,100366.10
2022-10-11T01:44:05.033Z,100363.84
2022-10-11T01:48:10.322Z,100360.66
2022-10-11T01:52:12.572Z,100356.27
2022-10-11T01:56:26.301Z,100360.54
2022-10-11T02:00:40.236Z,100357.73
2022-10-11T02:04:50.038Z,100354.79
2022-10-11T02:09:04.354Z,100355.89
2022-10-11T02:13:15.701Z,100350.47
2022-10-11T02:17:22.405Z,100350.28
2022-10-11T02:21:25.408Z,100347.71
2022-10-11T02:25:29.813Z,100342.14
2022-10-11T02:29:35.665Z,100349.59
2022-10-11T02:33:44.538Z,100347.23
2022-10-11T02:37:53.682Z,100346.20
2022-10-11T02:41:59.562Z,100346.56
2022-10-11T02:46:03.662Z,100348.04
2022-10-11T02:50:06.282Z,100351.73
2022-10-11T02:54:08.232Z,100348.04
2022-10-11T02:58:10.075Z,100350.02
2022-10-11T03:02:11.930Z,100345.16
2022-10-11T03:06:13.834Z,100347.42
2022-10-11T03:10:15.726Z,100344.62
2022-10-11T03:14:17.641Z,100346.93
2022-10-11T03:18:20.262Z,100343.02
2022-10-11T03:22:22.160Z,100344.27
2022-10-11T03:26:24.031Z,100341.75
2022-10-11T03:30:26.125Z,100346.17
2022-10-11T03:34:28.048Z,100339.98
2022-10-11T03:38:29.905Z,100340.34
2022-10-11T03:42:31.755Z,100358.63
2022-10-11T03:46:33.666Z,100362.73
2022-10-11T03:50:36.650Z,100363.55
2022-10-11T03:54:38.503Z,100362.29
2022-10-11T03:58:41.204Z,100368.52
2022-10-11T04:02:43.236Z,100371.28
2022-10-11T04:06:45.079Z,100373.39
2022-10-11T04:10:48.114Z,100373.75
2022-10-11T04:14:50.208Z,100372.67
2022-10-11T04:18:52.056Z,100370.86
2022-10-11T04:22:53.925Z,100365.77
2022-10-11T04:26:56.073Z,100364.46
2022-10-11T04:30:57.882Z,100366.37
2022-10-11T04:34:59.856Z,100370.99
2022-10-11T04:39:01.751Z,100378.52
2022-10-11T04:43:03.750Z,100382.86
2022-10-11T04:47:05.631Z,100387.48
2022-10-11T04:51:08.299Z,100387.83
2022-10-11T04:55:10.909Z,100386.80
2022-10-11T04:59:12.805Z,100392.16
2022-10-11T05:03:14.807Z,100402.67
2022-10-11T05:07:16.845Z,100400.45
2022-10-11T05:11:18.912Z,100406.35
2022-10-11T05:15:20.724Z,100416.95
2022-10-11T05:19:22.641Z,100403.04
2022-10-11T05:23:24.666Z,100417.66
2022-10-11T05:27:26.601Z,100420.92
2022-10-11T05:31:28.673Z,100418.34
2022-10-11T05:35:30.507Z,100430.73
2022-10-11T05:39:32.414Z,100430.36
2022-10-11T05:43:35.887Z,100441.49
2022-10-11T05:47:37.877Z,100436.73
2022-10-11T05:51:39.761Z,100459.88
2022-10-11T05:55:42.974Z,100473.02
2022-10-11T05:59:44.931Z,100469.33
2022-10-11T06:03:47.610Z,100475.98
2022-10-11T06:07:49.557Z,100478.46
2022-10-11T06:11:51.453Z,100479.73
2022-10-11T06:15:53.320Z,100486.20
2022-10-11T06:19:55.489Z,100490.65
2022-10-11T06:24:01.428Z,100496.52
2022-10-11T06:28:03.987Z,100504.42
2022-10-11T06:32:06.082Z,100517.31
2022-10-11T06:36:13.697Z,100520.08
2022-10-11T06:40:15.657Z,100523.39
2022-10-11T06:44:17.628Z,100522.26
2022-10-11T06:48:19.552Z,100524.71
2022-10-11T06:52:21.620Z,100520.97
2022-10-11T06:56:25.702Z,100524.96
2022-10-11T07:00:27.697Z,100533.93
2022-10-11T07:04:29.692Z,100540.79
2022-10-11T07:08:32.543Z,100541.64
2022-10-11T07:12:34.468Z,100546.71
2022-10-11T07:16:37.385Z,100545.16
2022-10-11T07:20:39.472Z,100547.42
2022-10-11T07:24:43.017Z,100549.46
2022-10-11T07:28:46.409Z,100553.61
2022-10-11T07:32:48.319Z,100563.52
2022-10-11T07:36:50.343Z,100574.52
2022-10-11T07:40:52.485Z,100567.39
2022-10-11T07:44:54.409Z,100573.90
2022-10-11T07:48:56.536Z,100576.33
2022-10-11T07:52:58.564Z,100573.52
2022-10-11T07:57:00.522Z,100573.14
2022-10-11T08:01:02.524Z,100579.27
2022-10-11T08:05:04.962Z,100576.14
2022-10-11T08:09:07.044Z,100580.21
2022-10-11T08:13:08.911Z,100580.54
2022-10-11T08:17:10.824Z,100582.14
2022-10-11T08:21:16.136Z,100590.05
2022-10-11T08:25:18.255Z,100593.08
2022-10-11T08:29:20.201Z,100589.23
2022-10-11T08:33:24.513Z,100591.35
2022-10-11T08:37:26.462Z,100595.20
2022-10-11T08:41:48.123Z,100601.54
2022-10-11T08:45:54.729Z,100601.27
2022-10-11T08:49:58.553Z,100601.27
2022-10-11T08:54:07.951Z,100608.98
2022-10-11T08:58:25.029Z,100611.91
2022-10-11T09:03:10.568Z,100623.27
2022-10-11T09:07:37.147Z,100619.24
2022-10-11T09:12:00.653Z,100621.50
2022-10-11T09:16:14.824Z,100623.88
2022-10-11T09:20:28.710Z,100622.21
2022-10-11T09:24:46.954Z,100626.18
2022-10-11T09:29:03.358Z,100628.67
2022-10-11T09:33:36.576Z,100629.84
2022-10-11T09:37:44.020Z,100635.58
2022-10-11T09:41:58.492Z,100633.33
2022-10-11T09:46:00.449Z,100628.31
2022-10-11T09:50:13.926Z,100636.64
2022-10-11T09:54:19.225Z,100639.11
2022-10-11T09:58:34.279Z,100642.83
2022-10-11T10:02:47.026Z,100650.80
2022-10-11T10:07:02.125Z,100653.86
2022-10-11T10:11:06.708Z,100657.85
2022-10-11T10:15:18.729Z,100666.80
2022-10-11T10:19:21.481Z,100674.00
2022-10-11T10:23:27.635Z,100678.69
2022-10-11T10:27:31.371Z,100676.42
2022-10-11T10:32:13.386Z,100678.85
2022-10-11T10:36:27.081Z,100682.35
2022-10-11T10:40:50.597Z,100687.73
2022-10-11T10:44:56.464Z,100695.11
2022-10-11T10:53:58.189Z,100705.71
2022-10-11T10:58:06.788Z,100711.72
2022-10-11T11:02:40.880Z,100713.27
2022-10-11T11:06:57.663Z,100716.69
2022-10-11T11:11:03.964Z,100716.84
2022-10-11T11:15:27.182Z,100717.14
2022-10-11T11:19:52.935Z,100724.13
2022-10-11T11:24:30.358Z,100728.02
2022-10-11T11:28:44.362Z,100728.14
2022-10-11T11:33:18.248Z,100724.52
2022-10-11T11:37:36.848Z,100730.92
2022-10-11T11:41:53.385Z,100740.10
2022-10-11T11:46:00.927Z,100739.14
2022-10-11T11:50:21.872Z,100743.60
2022-10-11T11:54:35.682Z,100741.41
2022-10-11T11:58:43.510Z,100741.52
2022-10-11T12:02:54.304Z,100736.54
2022-10-11T12:07:15.805Z,100736.42
2022-10-11T12:11:49.047Z,100742.40
2022-10-11T12:16:03.442Z,100743.52
2022-10-11T12:20:08.084Z,100747.41
2022-10-11T12:24:09.985Z,100747.66
2022-10-11T12:28:36.602Z,100747.40
2022-10-11T12:32:39.022Z,100746.17
2022-10-11T12:36:43.835Z,100745.25
2022-10-11T12:40:47.640Z,100749.80
2022-10-11T12:45:14.336Z,100749.27
2022-10-11T12:49:37.405Z,100748.45
2022-10-11T12:54:26.068Z,100744.02
2022-10-11T12:58:37.834Z,100741.02
2022-10-11T13:02:43.941Z,100746.45
2022-10-11T13:06:49.406Z,100752.39
2022-10-11T13:10:52.973Z,100753.91
2022-10-11T13:15:06.679Z,100754.35
2022-10-11T13:19:12.996Z,100759.77
2022-10-11T13:23:38.497Z,100759.52
2022-10-11T13:27:40.549Z,100754.84
2022-10-11T13:31:45.621Z,100758.44
2022-10-11T13:35:47.984Z,100764.48
2022-10-11T13:39:55.357Z,100763.38
2022-10-11T13:43:59.937Z,100767.84
2022-10-11T13:48:02.137Z,100774.73
2022-10-11T13:52:18.952Z,100772.23
2022-10-11T13:56:20.893Z,100781.61
2022-10-11T14:00:29.853Z,100777.02
2022-10-11T14:04:40.919Z,100776.50
2022-10-11T14:08:47.753Z,100778.37
2022-10-11T14:13:05.092Z,100780.81
2022-10-11T14:17:09.717Z,100786.02
2022-10-11T14:21:34.190Z,100786.98
2022-10-11T14:25:36.093Z,100784.05
2022-10-11T14:29:45.651Z,100789.10
2022-10-11T14:33:54.692Z,100790.83
2022-10-11T14:37:57.625Z,100795.34
2022-10-11T14:41:59.811Z,100798.77
2022-10-11T14:46:01.830Z,100800.10
2022-10-11T14:50:47.328Z,100800.80
2022-10-11T14:54:49.205Z,100807.57
2022-10-11T14:58:51.470Z,100811.88
2022-10-11T15:02:54.043Z,100815.40
2022-10-11T15:06:57.003Z,100816.58
2022-10-11T15:11:03.206Z,100821.61
2022-10-11T15:15:06.371Z,100826.11
2022-10-11T15:19:16.120Z,100830.95
2022-10-11T15:23:18.228Z,100834.09
2022-10-11T15:27:24.912Z,100827.90
2022-10-11T15:31:27.129Z,100829.41
2022-10-11T15:35:29.568Z,100831.00
2022-10-11T15:39:33.203Z,100836.22
2022-10-11T15:43:35.127Z,100842.18
2022-10-11T15:47:37.293Z,100847.84
2022-10-11T15:51:39.692Z,100855.55
2022-10-11T15:55:45.213Z,100863.26
2022-10-11T15:59:47.265Z,100867.62
2022-10-11T16:03:50.469Z,100870.05
2022-10-11T16:07:53.754Z,100872.19
2022-10-11T16:11:55.647Z,100877.40
2022-10-11T16:16:00.652Z,100878.52
2022-10-11T16:20:05.384Z,100881.37
2022-10-11T16:24:08.521Z,100885.89
2022-10-11T16:28:10.618Z,100888.44
2022-10-11T16:32:12.536Z,100893.64
2022-10-11T16:36:34.623Z,100894.83
2022-10-11T16:40:38.468Z,100897.99
2022-10-11T16:44:40.373Z,100896.23
2022-10-11T16:48:42.271Z,100898.56
2022-10-11T16:52:44.126Z,100902.55
2022-10-11T16:56:46.853Z,100902.39
2022-10-11T17:00:50.152Z,100902.84
2022-10-11T17:04:53.640Z,100906.36
2022-10-11T17:08:55.784Z,100907.55
2022-10-11T17:12:57.655Z,100909.32
2022-10-11T17:16:59.587Z,100910.39
2022-10-11T17:21:06.711Z,100912.46
2022-10-11T17:25:08.804Z,100919.87
2022-10-11T17:29:15.761Z,100919.27
2022-10-11T17:33:17.738Z,100924.88
2022-10-11T17:37:20.203Z,100928.98
2022-10-11T17:41:22.173Z,100935.89
2022-10-11T17:45:24.062Z,100936.79
2022-10-11T17:49:25.944Z,100938.30
2022-10-11T17:53:28.011Z,100934.58
2022-10-11T17:57:30.082Z,100942.21
2022-10-11T18:01:32.450Z,100948.50
2022-10-11T18:05:39.993Z,100954.36
2022-10-11T18:09:42.322Z,100953.50
2022-10-11T18:13:48.273Z,100959.11
2022-10-11T18:17:50.672Z,100964.74
2022-10-11T18:21:52.967Z,100963.31
2022-10-11T18:25:55.980Z,100964.61
2022-10-11T18:29:58.915Z,100963.33
2022-10-11T18:34:03.317Z,100962.21
2022-10-11T18:38:06.481Z,100963.06
2022-10-11T18:42:09.377Z,100965.31
2022-10-11T18:46:14.026Z,100964.42
2022-10-11T18:50:17.048Z,100960.09
2022-10-11T18:54:21.350Z,100963.38
2022-10-11T18:58:23.846Z,100963.73
2022-10-11T19:02:25.882Z,100970.14
2022-10-11T19:06:31.484Z,100967.27
2022-10-11T19:10:33.948Z,100964.50
2022-10-11T19:14:36.107Z,100966.83
2022-10-11T19:18:43.195Z,100970.56
2022-10-11T19:22:46.068Z,100974.33
2022-10-11T19:26:49.048Z,100975.89
2022-10-11T19:30:50.911Z,100983.08
2022-10-11T19:34:52.733Z,100984.65
2022-10-11T19:38:56.256Z,100983.98
2022-10-11T19:42:58.088Z,100988.69
2022-10-11T19:47:05.301Z,100996.23
2022-10-11T19:51:11.567Z,100996.64
2022-10-11T19:55:13.520Z,100997.48
2022-10-11T19:59:16.236Z,100999.30
2022-10-11T20:03:21.234Z,100997.48
2022-10-11T20:07:23.109Z,101004.05
2022-10-11T20:11:25.372Z,100997.70
2022-10-11T20:15:27.601Z,101000.13
2022-10-11T20:19:31.246Z,101006.32
2022-10-11T20:23:35.438Z,101004.88
2022-10-11T20:27:37.558Z,101005.11
2022-10-11T20:31:41.281Z,101006.64
2022-10-11T20:35:43.358Z,101014.29
2022-10-11T20:39:45.425Z,101016.63
2022-10-11T20:43:49.949Z,101011.94
2022-10-11T20:47:53.296Z,101013.57
2022-10-11T20:51:55.281Z,101018.59
2022-10-11T20:55:57.428Z,101021.17
2022-10-11T20:59:59.567Z,101026.39
2022-10-11T21:04:02.242Z,101032.20
2022-10-11T21:08:04.494Z,101029.52
2022-10-11T21:12:06.453Z,101032.38
2022-10-11T21:16:13.189Z,101029.73
2022-10-11T21:20:15.184Z,101033.27
2022-10-11T21:24:17.519Z,101033.64
2022-10-11T21:28:19.660Z,101037.33
2022-10-11T21:32:21.495Z,101033.83
2022-10-11T21:36:24.533Z,101034.88
2022-10-11T21:40:26.372Z,101038.36
2022-10-11T21:44:31.539Z,101036.80
2022-10-11T21:48:33.354Z,101036.20
2022-10-11T21:52:35.515Z,101036.54
2022-10-11T21:56:37.650Z,101041.62
2022-10-11T22:00:39.845Z,101045.61
2022-10-11T22:04:41.745Z,101043.31
2022-10-11T22:08:43.702Z,101044.92
2022-10-11T22:12:45.596Z,101048.61
2022-10-11T22:16:47.431Z,101049.73
2022-10-11T22:20:49.350Z,101048.88
2022-10-11T22:24:51.187Z,101047.84
2022-10-11T22:28:53.359Z,101048.05
2022-10-11T22:32:55.543Z,101046.99
2022-10-11T22:36:57.380Z,101044.52
2022-10-11T22:40:59.299Z,101048.63
2022-10-11T22:45:01.205Z,101050.23
2022-10-11T22:49:03.157Z,101052.80
2022-10-11T22:53:06.112Z,101054.48
2022-10-11T22:57:07.985Z,101056.77
2022-10-11T23:01:13.059Z,101059.48
2022-10-11T23:05:15.264Z,101061.45
2022-10-11T23:09:17.058Z,101061.15
2022-10-11T23:13:19.021Z,101057.81
2022-10-11T23:17:20.940Z,101060.35
2022-10-11T23:21:22.871Z,101058.83
2022-10-11T23:25:24.748Z,101050.42
2022-10-11T23:29:29.636Z,101060.18
2022-10-11T23:33:31.458Z,101055.31
2022-10-11T23:37:33.291Z,101054.79
2022-10-11T23:41:35.139Z,101057.48
2022-10-11T23:45:37.131Z,101060.73
2022-10-11T23:49:39.015Z,101057.00
2022-10-11T23:53:41.146Z,101063.26
2022-10-11T23:57:43.121Z,101066.15
